NEW MELONES RESERVOIR (NML)

Elevation: 1135' · STANISLAUS R basin · Operator: US Bureau of Reclamation

Provisional data, subject to change.
Query executed Tuesday at 8:25:20   clock

Select a sensor type for a plot of data.
Note: Reservoir Flows are daily averages.

Earlier

Date RES ELE    STORAGE    RES CHG    TOC STO    ABV TOC    OUTFLOW    INFLOW    EVAP    FNF    RIV REL    PPT INC    SPILL    DIS PWR   
 FEET   AF   AF   AF   AF   CFS   CFS   CFS   CFS   CFS   INCHES   CFS   CFS  
06/23/2014 902.25 736296 -3211 2420000 -1683704 2043 510 86 474 0 0.00 0 2043
06/24/2014 901.75 733330 -2966 2420000 -1686670 1781 374 88 351 0 0.00 38 1743
06/25/2014 901.05 729188 -4142 2420000 -1690812 1539 -- 82 -526 0 0.00 0 1539
06/26/2014 900.50 725949 -3239 2420000 -1694051 1940 374 67 337 0 0.00 0 1940
06/27/2014 899.97 722830 -3119 2420000 -1697170 1889 382 65 336 0 0.00 0 1889
06/28/2014 899.43 719668 -3162 2420000 -1700332 1938 418 74 360 0 0.00 0 1938
06/29/2014 899.05 717442 -2226 2420000 -1702558 1409 372 85 301 0 0.00 0 1409
06/30/2014 -- 716741 -701 2420000 -1703259 2684 2424 93 2391 0 0.00 0 2684
07/01/2014 897.77 709989 -6752 2420000 -1710011 1756 -- 90 -1637 0 0.00 0 1756
07/02/2014 897.16 706453 -3536 2420000 -1713547 2055 371 99 304 0 0.00 0 2055
07/03/2014 896.66 703564 -2889 2420000 -1716436 1809 436 84 347 0 0.00 0 1809
07/04/2014 896.15 700623 -2941 2420000 -1719377 1766 382 99 283 0 0.00 0 1766
07/05/2014 895.64 697692 -2931 2420000 -1722308 1821 445 102 338 0 0.00 0 1821
07/06/2014 895.06 694364 -3328 2420000 -1725636 1974 390 94 303 0 0.00 0 1974
07/07/2014 894.59 691680 -2684 2420000 -1728320 1642 387 98 265 0 0.00 0 1642
07/08/2014 894.16 689225 -2455 2420000 -1730775 1471 294 61 193 0 0.00 0 1471
07/09/2014 893.69 686552 -2673 2420000 -1733448 1668 405 85 311 0 0.00 0 1668
07/10/2014 893.20 683769 -2783 -- -- 1671 345 77 221 0 0.00 0 1671
07/11/2014 892.67 680769 -3000 2420000 -- 1771 334 75 223 0 0.00 0 1771
07/12/2014 892.18 678001 -2768 2420000 -- 1690 389 95 273 0 0.00 0 1690
07/13/2014 891.75 675579 -2422 2420000 -1744421 1590 451 82 334 0 0.00 0 1590
07/14/2014 891.27 672881 -2698 2420000 -1747119 1751 456 65 344 0 0.00 0 1751
07/15/2014 890.71 669743 -3138 2420000 -1750257 1865 366 83 293 0 0.00 0 1865
07/16/2014 890.21 666947 -2796 2420000 -1753053 1651 322 81 326 0 0.00 0 1651
07/17/2014 889.73 664271 -2676 2420000 -1755729 1692 424 81 341 0 0.00 0 1692
07/18/2014 889.26 661657 -2614 2420000 -1758343 1582 336 72 280 0 0.00 0 1582
07/19/2014 888.77 658939 -2718 2420000 -1761061 1691 389 68 305 0 0.00 0 1691
07/20/2014 888.28 656228 -2711 2420000 -1763772 1655 370 82 452 0 0.00 0 1655
07/21/2014 887.94 654349 -1879 2420000 -1765651 1254 364 57 489 0 0.00 0 1254
07/22/2014 -- -- -- -- -- -- -- -- -- -- -- -- --

Later | Latest

Warning! This data is preliminary and subject to revision.

Download Data Now Download Data Now | Show NML Map | Plot NML Data | 1 Month NML Data | Real-Time NML Data | NML Info